sensor_id;sensor_type;location;lat;lon;timestamp;pressure;altitude;pressure_sealevel;temperature;humidity
77776;BME280;66965;43.328;6.668;2023-08-08T00:01:48;101454.06;;;22.11;80.23
77776;BME280;66965;43.328;6.668;2023-08-08T00:04:13;101460.63;;;22.21;79.83
77776;BME280;66965;43.328;6.668;2023-08-08T00:06:39;101461.72;;;22.17;78.45
77776;BME280;66965;43.328;6.668;2023-08-08T00:09:04;101454.19;;;22.09;78.16
77776;BME280;66965;43.328;6.668;2023-08-08T00:11:30;101455.81;;;22.12;78.21
77776;BME280;66965;43.328;6.668;2023-08-08T00:13:56;101460.09;;;22.14;77.49
77776;BME280;66965;43.328;6.668;2023-08-08T00:16:22;101452.50;;;22.22;77.54
77776;BME280;66965;43.328;6.668;2023-08-08T00:18:48;101465.28;;;22.17;77.71
77776;BME280;66965;43.328;6.668;2023-08-08T00:21:16;101458.19;;;22.16;77.61
77776;BME280;66965;43.328;6.668;2023-08-08T00:23:41;101458.03;;;22.19;77.68
77776;BME280;66965;43.328;6.668;2023-08-08T00:26:06;101461.19;;;21.96;78.71
77776;BME280;66965;43.328;6.668;2023-08-08T00:28:32;101459.25;;;22.14;79.13
77776;BME280;66965;43.328;6.668;2023-08-08T00:30:57;101453.50;;;22.06;79.78
77776;BME280;66965;43.328;6.668;2023-08-08T00:33:23;101458.84;;;22.06;80.53
77776;BME280;66965;43.328;6.668;2023-08-08T00:35:48;101455.56;;;22.01;81.17
77776;BME280;66965;43.328;6.668;2023-08-08T00:38:14;101453.97;;;21.82;83.06
77776;BME280;66965;43.328;6.668;2023-08-08T00:40:39;101456.22;;;21.90;82.64
77776;BME280;66965;43.328;6.668;2023-08-08T00:43:05;101459.91;;;21.88;83.13
77776;BME280;66965;43.328;6.668;2023-08-08T00:45:30;101457.06;;;21.91;83.01
77776;BME280;66965;43.328;6.668;2023-08-08T00:47:56;101458.59;;;21.79;85.09
77776;BME280;66965;43.328;6.668;2023-08-08T00:50:21;101456.97;;;21.76;86.61
77776;BME280;66965;43.328;6.668;2023-08-08T00:52:48;101448.03;;;21.77;87.15
77776;BME280;66965;43.328;6.668;2023-08-08T00:55:14;101448.44;;;21.85;87.72
77776;BME280;66965;43.328;6.668;2023-08-08T00:57:40;101444.91;;;22.01;87.97
77776;BME280;66965;43.328;6.668;2023-08-08T01:00:06;101453.09;;;21.98;88.41
77776;BME280;66965;43.328;6.668;2023-08-08T01:02:32;101457.94;;;21.91;88.96
77776;BME280;66965;43.328;6.668;2023-08-08T01:04:58;101448.88;;;21.94;89.44
77776;BME280;66965;43.328;6.668;2023-08-08T01:10:20;101451.91;;;21.56;93.11
77776;BME280;66965;43.328;6.668;2023-08-08T01:12:49;101451.75;;;21.44;95.23
77776;BME280;66965;43.328;6.668;2023-08-08T01:15:16;101442.38;;;21.52;94.70
77776;BME280;66965;43.328;6.668;2023-08-08T01:17:43;101452.06;;;21.53;94.70
77776;BME280;66965;43.328;6.668;2023-08-08T01:20:10;101454.16;;;21.48;94.72
77776;BME280;66965;43.328;6.668;2023-08-08T01:22:58;101448.13;;;21.45;94.34
77776;BME280;66965;43.328;6.668;2023-08-08T01:25:29;101447.28;;;21.44;93.96
77776;BME280;66965;43.328;6.668;2023-08-08T01:27:55;101441.69;;;21.33;93.89
77776;BME280;66965;43.328;6.668;2023-08-08T01:30:20;101438.41;;;21.28;94.14
77776;BME280;66965;43.328;6.668;2023-08-08T01:32:46;101444.19;;;21.36;94.60
77776;BME280;66965;43.328;6.668;2023-08-08T01:35:11;101453.38;;;21.31;94.89
77776;BME280;66965;43.328;6.668;2023-08-08T01:37:44;101446.03;;;21.18;95.38
77776;BME280;66965;43.328;6.668;2023-08-08T01:40:13;101442.88;;;21.27;94.75
77776;BME280;66965;43.328;6.668;2023-08-08T01:42:43;101441.03;;;21.12;94.95
77776;BME280;66965;43.328;6.668;2023-08-08T01:45:10;101439.06;;;21.16;95.22
77776;BME280;66965;43.328;6.668;2023-08-08T01:47:36;101441.41;;;21.22;93.75
77776;BME280;66965;43.328;6.668;2023-08-08T01:50:02;101440.44;;;21.07;92.96
77776;BME280;66965;43.328;6.668;2023-08-08T01:52:28;101449.00;;;20.97;93.50
77776;BME280;66965;43.328;6.668;2023-08-08T01:54:54;101447.25;;;21.13;92.52
77776;BME280;66965;43.328;6.668;2023-08-08T01:57:20;101443.03;;;21.24;91.68
77776;BME280;66965;43.328;6.668;2023-08-08T01:59:46;101448.66;;;21.36;91.10
77776;BME280;66965;43.328;6.668;2023-08-08T02:02:11;101443.59;;;21.31;90.11
77776;BME280;66965;43.328;6.668;2023-08-08T02:04:37;101445.53;;;21.43;89.21
77776;BME280;66965;43.328;6.668;2023-08-08T02:07:02;101435.75;;;21.28;88.88
77776;BME280;66965;43.328;6.668;2023-08-08T02:09:28;101445.28;;;21.48;88.66
77776;BME280;66965;43.328;6.668;2023-08-08T02:11:53;101443.47;;;21.33;89.02
77776;BME280;66965;43.328;6.668;2023-08-08T02:14:19;101430.41;;;21.28;89.88
77776;BME280;66965;43.328;6.668;2023-08-08T02:16:44;101431.63;;;21.22;90.64
77776;BME280;66965;43.328;6.668;2023-08-08T02:19:10;101441.69;;;21.33;89.85
77776;BME280;66965;43.328;6.668;2023-08-08T02:21:35;101430.41;;;21.28;89.51
77776;BME280;66965;43.328;6.668;2023-08-08T02:24:00;101426.00;;;21.11;89.85
77776;BME280;66965;43.328;6.668;2023-08-08T02:26:26;101431.34;;;21.11;90.09
77776;BME280;66965;43.328;6.668;2023-08-08T02:28:51;101430.53;;;21.09;90.11
77776;BME280;66965;43.328;6.668;2023-08-08T02:31:17;101432.66;;;21.20;88.63
77776;BME280;66965;43.328;6.668;2023-08-08T02:33:50;101438.66;;;21.08;89.18
77776;BME280;66965;43.328;6.668;2023-08-08T02:36:17;101446.06;;;21.01;89.39
77776;BME280;66965;43.328;6.668;2023-08-08T02:38:42;101443.47;;;21.17;89.39
77776;BME280;66965;43.328;6.668;2023-08-08T02:41:08;101441.03;;;21.12;90.37
77776;BME280;66965;43.328;6.668;2023-08-08T02:43:33;101446.72;;;21.06;89.62
77776;BME280;66965;43.328;6.668;2023-08-08T02:45:59;101439.56;;;21.07;89.39
77776;BME280;66965;43.328;6.668;2023-08-08T02:48:24;101438.22;;;21.15;88.19
77776;BME280;66965;43.328;6.668;2023-08-08T02:50:50;101445.72;;;21.24;87.84
77776;BME280;66965;43.328;6.668;2023-08-08T02:53:15;101437.84;;;21.06;89.31
77776;BME280;66965;43.328;6.668;2023-08-08T02:55:40;101431.72;;;21.04;88.56
77776;BME280;66965;43.328;6.668;2023-08-08T02:58:06;101427.22;;;20.89;89.52
77776;BME280;66965;43.328;6.668;2023-08-08T03:00:31;101424.75;;;21.01;88.51
77776;BME280;66965;43.328;6.668;2023-08-08T03:02:57;101432.75;;;21.01;88.00
77776;BME280;66965;43.328;6.668;2023-08-08T03:05:22;101425.16;;;20.94;88.23
77776;BME280;66965;43.328;6.668;2023-08-08T03:07:47;101430.38;;;20.80;87.76
77776;BME280;66965;43.328;6.668;2023-08-08T03:10:13;101427.22;;;20.89;87.81
77776;BME280;66965;43.328;6.668;2023-08-08T03:12:38;101431.84;;;20.85;88.58
77776;BME280;66965;43.328;6.668;2023-08-08T03:15:05;101431.84;;;20.85;89.19
77776;BME280;66965;43.328;6.668;2023-08-08T03:17:30;101432.28;;;20.78;90.02
77776;BME280;66965;43.328;6.668;2023-08-08T03:19:56;101431.09;;;20.83;89.77
77776;BME280;66965;43.328;6.668;2023-08-08T03:22:21;101429.88;;;20.89;90.77
77776;BME280;66965;43.328;6.668;2023-08-08T03:24:47;101434.34;;;20.88;91.44
77776;BME280;66965;43.328;6.668;2023-08-08T03:27:12;101434.03;;;20.94;91.33
77776;BME280;66965;43.328;6.668;2023-08-08T03:29:38;101431.03;;;21.00;90.40
77776;BME280;66965;43.328;6.668;2023-08-08T03:32:04;101431.69;;;20.88;91.09
77776;BME280;66965;43.328;6.668;2023-08-08T03:34:29;101430.22;;;20.83;91.56
77776;BME280;66965;43.328;6.668;2023-08-08T03:36:55;101428.31;;;20.85;91.60
77776;BME280;66965;43.328;6.668;2023-08-08T03:39:21;101430.28;;;20.65;94.48
77776;BME280;66965;43.328;6.668;2023-08-08T03:41:46;101437.59;;;20.78;93.46
77776;BME280;66965;43.328;6.668;2023-08-08T03:44:12;101438.88;;;20.71;93.54
77776;BME280;66965;43.328;6.668;2023-08-08T03:46:37;101440.75;;;20.68;94.40
77776;BME280;66965;43.328;6.668;2023-08-08T03:49:03;101437.13;;;20.87;95.67
77776;BME280;66965;43.328;6.668;2023-08-08T03:51:28;101444.50;;;20.82;97.18
77776;BME280;66965;43.328;6.668;2023-08-08T03:53:54;101446.06;;;20.68;100.00
77776;BME280;66965;43.328;6.668;2023-08-08T03:56:20;101443.47;;;20.84;100.00
77776;BME280;66965;43.328;6.668;2023-08-08T03:58:45;101449.03;;;20.80;100.00
77776;BME280;66965;43.328;6.668;2023-08-08T04:01:11;101451.13;;;20.90;100.00
77776;BME280;66965;43.328;6.668;2023-08-08T04:03:36;101456.56;;;20.72;100.00
77776;BME280;66965;43.328;6.668;2023-08-08T04:06:02;101456.66;;;20.87;100.00
77776;BME280;66965;43.328;6.668;2023-08-08T04:08:28;101458.59;;;20.84;100.00
77776;BME280;66965;43.328;6.668;2023-08-08T04:10:53;101459.81;;;20.94;100.00
77776;BME280;66965;43.328;6.668;2023-08-08T04:13:19;101456.56;;;21.04;100.00
77776;BME280;66965;43.328;6.668;2023-08-08T04:15:45;101457.13;;;20.78;100.00
77776;BME280;66965;43.328;6.668;2023-08-08T04:18:10;101457.16;;;20.94;100.00
77776;BME280;66965;43.328;6.668;2023-08-08T04:20:36;101463.78;;;20.87;100.00
77776;BME280;66965;43.328;6.668;2023-08-08T04:23:01;101459.22;;;20.89;100.00
77776;BME280;66965;43.328;6.668;2023-08-08T04:25:27;101463.34;;;20.94;100.00
77776;BME280;66965;43.328;6.668;2023-08-08T04:27:53;101461.16;;;20.85;100.00
77776;BME280;66965;43.328;6.668;2023-08-08T04:30:19;101458.84;;;20.79;100.00
77776;BME280;66965;43.328;6.668;2023-08-08T04:32:45;101462.28;;;20.81;100.00
77776;BME280;66965;43.328;6.668;2023-08-08T04:35:10;101470.03;;;20.86;100.00
77776;BME280;66965;43.328;6.668;2023-08-08T04:37:36;101474.66;;;20.82;100.00
77776;BME280;66965;43.328;6.668;2023-08-08T04:40:01;101477.09;;;20.87;100.00
77776;BME280;66965;43.328;6.668;2023-08-08T04:42:27;101472.22;;;20.95;100.00
77776;BME280;66965;43.328;6.668;2023-08-08T04:44:53;101473.16;;;20.94;100.00
77776;BME280;66965;43.328;6.668;2023-08-08T04:47:18;101477.44;;;20.96;100.00
77776;BME280;66965;43.328;6.668;2023-08-08T04:49:43;101491.97;;;21.08;100.00
77776;BME280;66965;43.328;6.668;2023-08-08T04:52:09;101484.56;;;21.13;100.00
77776;BME280;66965;43.328;6.668;2023-08-08T04:54:34;101480.72;;;21.18;100.00
77776;BME280;66965;43.328;6.668;2023-08-08T04:57:00;101480.38;;;21.09;100.00
77776;BME280;66965;43.328;6.668;2023-08-08T04:59:25;101481.69;;;21.33;100.00
77776;BME280;66965;43.328;6.668;2023-08-08T05:01:50;101481.47;;;21.20;100.00
77776;BME280;66965;43.328;6.668;2023-08-08T05:04:17;101482.28;;;21.38;100.00
77776;BME280;66965;43.328;6.668;2023-08-08T05:06:43;101480.81;;;21.48;100.00
77776;BME280;66965;43.328;6.668;2023-08-08T05:09:08;101489.00;;;21.45;100.00
77776;BME280;66965;43.328;6.668;2023-08-08T05:11:35;101478.91;;;21.50;100.00
77776;BME280;66965;43.328;6.668;2023-08-08T05:14:01;101481.09;;;21.59;100.00
77776;BME280;66965;43.328;6.668;2023-08-08T05:16:26;101482.66;;;21.63;100.00
77776;BME280;66965;43.328;6.668;2023-08-08T05:18:52;101477.97;;;21.67;100.00
77776;BME280;66965;43.328;6.668;2023-08-08T05:21:17;101475.75;;;21.59;100.00
77776;BME280;66965;43.328;6.668;2023-08-08T05:23:43;101484.34;;;21.80;100.00
77776;BME280;66965;43.328;6.668;2023-08-08T05:26:08;101488.31;;;21.73;100.00
77776;BME280;66965;43.328;6.668;2023-08-08T05:28:34;101494.84;;;21.83;100.00
77776;BME280;66965;43.328;6.668;2023-08-08T05:30:59;101491.84;;;21.89;100.00
77776;BME280;66965;43.328;6.668;2023-08-08T05:33:25;101493.84;;;21.85;100.00
77776;BME280;66965;43.328;6.668;2023-08-08T05:35:50;101493.72;;;22.03;100.00
77776;BME280;66965;43.328;6.668;2023-08-08T05:38:16;101491.88;;;22.19;100.00
77776;BME280;66965;43.328;6.668;2023-08-08T05:40:41;101497.72;;;22.25;100.00
77776;BME280;66965;43.328;6.668;2023-08-08T05:43:07;101498.09;;;22.19;100.00
77776;BME280;66965;43.328;6.668;2023-08-08T05:45:33;101502.03;;;22.28;100.00
77776;BME280;66965;43.328;6.668;2023-08-08T05:47:58;101503.94;;;22.26;100.00
77776;BME280;66965;43.328;6.668;2023-08-08T05:50:26;101514.16;;;22.33;100.00
77776;BME280;66965;43.328;6.668;2023-08-08T05:52:52;101509.91;;;22.45;100.00
77776;BME280;66965;43.328;6.668;2023-08-08T05:55:17;101510.31;;;22.53;100.00
77776;BME280;66965;43.328;6.668;2023-08-08T05:57:42;101509.75;;;22.48;100.00
77776;BME280;66965;43.328;6.668;2023-08-08T06:00:08;101515.34;;;22.43;100.00
77776;BME280;66965;43.328;6.668;2023-08-08T06:02:37;101508.59;;;22.52;100.00
77776;BME280;66965;43.328;6.668;2023-08-08T06:05:02;101508.66;;;22.66;100.00
77776;BME280;66965;43.328;6.668;2023-08-08T06:07:28;101511.84;;;22.73;100.00
77776;BME280;66965;43.328;6.668;2023-08-08T06:09:53;101512.59;;;22.75;100.00
77776;BME280;66965;43.328;6.668;2023-08-08T06:12:18;101517.47;;;22.82;100.00
77776;BME280;66965;43.328;6.668;2023-08-08T06:14:44;101517.28;;;22.85;100.00
77776;BME280;66965;43.328;6.668;2023-08-08T06:17:09;101524.34;;;22.72;100.00
77776;BME280;66965;43.328;6.668;2023-08-08T06:19:35;101518.53;;;22.94;100.00
77776;BME280;66965;43.328;6.668;2023-08-08T06:22:00;101529.63;;;23.02;100.00
77776;BME280;66965;43.328;6.668;2023-08-08T06:24:27;101526.38;;;22.97;100.00
77776;BME280;66965;43.328;6.668;2023-08-08T06:26:52;101533.81;;;22.92;100.00
77776;BME280;66965;43.328;6.668;2023-08-08T06:29:18;101531.81;;;23.10;100.00
77776;BME280;66965;43.328;6.668;2023-08-08T06:31:43;101530.88;;;23.25;100.00
77776;BME280;66965;43.328;6.668;2023-08-08T06:34:08;101541.59;;;23.39;100.00
77776;BME280;66965;43.328;6.668;2023-08-08T06:36:34;101532.75;;;23.23;100.00
77776;BME280;66965;43.328;6.668;2023-08-08T06:38:59;101536.97;;;23.27;100.00
77776;BME280;66965;43.328;6.668;2023-08-08T06:41:25;101542.22;;;23.28;100.00
77776;BME280;66965;43.328;6.668;2023-08-08T06:43:51;101544.19;;;23.40;100.00
77776;BME280;66965;43.328;6.668;2023-08-08T06:46:16;101544.06;;;23.42;100.00
77776;BME280;66965;43.328;6.668;2023-08-08T06:48:42;101549.19;;;23.31;100.00
77776;BME280;66965;43.328;6.668;2023-08-08T06:51:08;101552.41;;;23.37;100.00
77776;BME280;66965;43.328;6.668;2023-08-08T06:53:34;101543.13;;;23.57;100.00
77776;BME280;66965;43.328;6.668;2023-08-08T06:55:59;101549.59;;;23.67;100.00
77776;BME280;66965;43.328;6.668;2023-08-08T06:58:24;101558.38;;;23.69;100.00
77776;BME280;66965;43.328;6.668;2023-08-08T07:00:50;101558.00;;;23.61;100.00
77776;BME280;66965;43.328;6.668;2023-08-08T07:03:16;101557.78;;;23.78;100.00
77776;BME280;66965;43.328;6.668;2023-08-08T07:05:42;101564.91;;;23.65;100.00
77776;BME280;66965;43.328;6.668;2023-08-08T07:08:07;101562.78;;;23.56;100.00
77776;BME280;66965;43.328;6.668;2023-08-08T07:10:34;101560.78;;;23.74;100.00
77776;BME280;66965;43.328;6.668;2023-08-08T07:13:00;101551.69;;;23.76;100.00
77776;BME280;66965;43.328;6.668;2023-08-08T07:15:26;101550.41;;;23.96;100.00
77776;BME280;66965;43.328;6.668;2023-08-08T07:17:52;101549.25;;;24.27;100.00
77776;BME280;66965;43.328;6.668;2023-08-08T07:20:17;101554.56;;;24.14;100.00
77776;BME280;66965;43.328;6.668;2023-08-08T07:22:43;101554.25;;;24.45;100.00
77776;BME280;66965;43.328;6.668;2023-08-08T07:25:09;101543.31;;;24.48;100.00
77776;BME280;66965;43.328;6.668;2023-08-08T07:27:34;101552.69;;;24.68;100.00
77776;BME280;66965;43.328;6.668;2023-08-08T07:29:59;101543.03;;;24.65;100.00
77776;BME280;66965;43.328;6.668;2023-08-08T07:32:26;101546.19;;;24.85;100.00
77776;BME280;66965;43.328;6.668;2023-08-08T07:34:51;101540.47;;;24.76;100.00
77776;BME280;66965;43.328;6.668;2023-08-08T07:37:16;101542.34;;;25.01;100.00
77776;BME280;66965;43.328;6.668;2023-08-08T07:39:42;101548.88;;;25.22;100.00
77776;BME280;66965;43.328;6.668;2023-08-08T07:42:08;101548.56;;;25.27;100.00
77776;BME280;66965;43.328;6.668;2023-08-08T07:44:33;101544.28;;;25.24;100.00
77776;BME280;66965;43.328;6.668;2023-08-08T07:47:00;101542.97;;;25.43;100.00
77776;BME280;66965;43.328;6.668;2023-08-08T07:49:25;101543.97;;;25.78;100.00
77776;BME280;66965;43.328;6.668;2023-08-08T07:51:51;101543.28;;;26.23;100.00
77776;BME280;66965;43.328;6.668;2023-08-08T07:54:16;101540.03;;;26.31;100.00
77776;BME280;66965;43.328;6.668;2023-08-08T07:56:41;101543.91;;;26.03;100.00
77776;BME280;66965;43.328;6.668;2023-08-08T07:59:08;101538.53;;;26.03;100.00
77776;BME280;66965;43.328;6.668;2023-08-08T08:01:34;101545.66;;;25.55;100.00
77776;BME280;66965;43.328;6.668;2023-08-08T08:03:59;101541.81;;;25.83;100.00
77776;BME280;66965;43.328;6.668;2023-08-08T08:06:25;101535.78;;;26.39;100.00
77776;BME280;66965;43.328;6.668;2023-08-08T08:08:50;101552.38;;;27.03;100.00
77776;BME280;66965;43.328;6.668;2023-08-08T08:11:16;101542.00;;;27.21;100.00
77776;BME280;66965;43.328;6.668;2023-08-08T08:13:42;101546.75;;;27.84;100.00
77776;BME280;66965;43.328;6.668;2023-08-08T08:16:08;101536.75;;;27.41;100.00
77776;BME280;66965;43.328;6.668;2023-08-08T08:18:33;101542.13;;;27.63;100.00
77776;BME280;66965;43.328;6.668;2023-08-08T08:20:59;101550.59;;;27.70;100.00
77776;BME280;66965;43.328;6.668;2023-08-08T08:23:25;101546.66;;;27.41;100.00
77776;BME280;66965;43.328;6.668;2023-08-08T08:25:50;101541.59;;;27.92;100.00
77776;BME280;66965;43.328;6.668;2023-08-08T08:28:15;101553.75;;;28.29;100.00
77776;BME280;66965;43.328;6.668;2023-08-08T08:30:41;101555.59;;;28.60;100.00
77776;BME280;66965;43.328;6.668;2023-08-08T08:33:06;101543.06;;;28.59;100.00
77776;BME280;66965;43.328;6.668;2023-08-08T08:35:34;101542.69;;;28.64;100.00
77776;BME280;66965;43.328;6.668;2023-08-08T08:37:59;101552.19;;;29.00;100.00
77776;BME280;66965;43.328;6.668;2023-08-08T08:40:25;101544.75;;;29.43;100.00
77776;BME280;66965;43.328;6.668;2023-08-08T08:42:50;101544.22;;;29.49;100.00
77776;BME280;66965;43.328;6.668;2023-08-08T08:45:19;101544.72;;;29.73;100.00
77776;BME280;66965;43.328;6.668;2023-08-08T08:47:46;101542.00;;;29.64;100.00
77776;BME280;66965;43.328;6.668;2023-08-08T08:50:15;101544.00;;;29.62;100.00
77776;BME280;66965;43.328;6.668;2023-08-08T08:52:42;101545.53;;;30.33;100.00
77776;BME280;66965;43.328;6.668;2023-08-08T08:55:08;101541.88;;;30.63;100.00
77776;BME280;66965;43.328;6.668;2023-08-08T08:57:34;101541.31;;;30.40;100.00
77776;BME280;66965;43.328;6.668;2023-08-08T09:00:01;101544.00;;;30.59;100.00
77776;BME280;66965;43.328;6.668;2023-08-08T09:02:26;101544.44;;;30.55;100.00
77776;BME280;66965;43.328;6.668;2023-08-08T09:04:51;101547.25;;;31.01;100.00
77776;BME280;66965;43.328;6.668;2023-08-08T09:07:18;101546.94;;;30.85;100.00
77776;BME280;66965;43.328;6.668;2023-08-08T09:09:45;101553.66;;;31.37;100.00
77776;BME280;66965;43.328;6.668;2023-08-08T09:12:11;101553.41;;;31.67;100.00
77776;BME280;66965;43.328;6.668;2023-08-08T09:14:41;101553.63;;;32.10;100.00
77776;BME280;66965;43.328;6.668;2023-08-08T09:17:13;101547.88;;;31.86;100.00
77776;BME280;66965;43.328;6.668;2023-08-08T09:19:43;101552.69;;;32.02;100.00
77776;BME280;66965;43.328;6.668;2023-08-08T09:22:09;101552.38;;;32.22;100.00
77776;BME280;66965;43.328;6.668;2023-08-08T09:24:38;101557.81;;;32.05;100.00
77776;BME280;66965;43.328;6.668;2023-08-08T09:27:04;101566.72;;;32.33;100.00
77776;BME280;66965;43.328;6.668;2023-08-08T09:29:31;101563.44;;;32.56;99.14
77776;BME280;66965;43.328;6.668;2023-08-08T09:31:56;101569.66;;;31.94;100.00
77776;BME280;66965;43.328;6.668;2023-08-08T09:34:24;101575.16;;;32.12;100.00
77776;BME280;66965;43.328;6.668;2023-08-08T09:36:52;101572.88;;;32.70;100.00
77776;BME280;66965;43.328;6.668;2023-08-08T09:39:17;101571.00;;;32.53;98.37
77776;BME280;66965;43.328;6.668;2023-08-08T09:41:45;101574.34;;;32.64;99.83
77776;BME280;66965;43.328;6.668;2023-08-08T09:44:11;101580.72;;;32.99;96.79
77776;BME280;66965;43.328;6.668;2023-08-08T09:46:37;101586.97;;;32.73;99.18
77776;BME280;66965;43.328;6.668;2023-08-08T09:49:05;101586.97;;;32.73;99.88
77776;BME280;66965;43.328;6.668;2023-08-08T09:51:30;101592.44;;;33.17;96.44
77776;BME280;66965;43.328;6.668;2023-08-08T09:53:56;101588.50;;;33.11;94.90
77776;BME280;66965;43.328;6.668;2023-08-08T09:56:23;101589.41;;;33.02;96.55
77776;BME280;66965;43.328;6.668;2023-08-08T09:58:50;101591.28;;;33.19;95.53
77776;BME280;66965;43.328;6.668;2023-08-08T10:01:16;101589.06;;;33.74;91.23
77776;BME280;66965;43.328;6.668;2023-08-08T10:03:42;101593.44;;;33.42;91.53
77776;BME280;66965;43.328;6.668;2023-08-08T10:06:10;101592.97;;;33.80;91.02
77776;BME280;66965;43.328;6.668;2023-08-08T10:08:36;101591.09;;;33.80;88.87
77776;BME280;66965;43.328;6.668;2023-08-08T10:11:02;101593.59;;;33.66;90.29
77776;BME280;66965;43.328;6.668;2023-08-08T10:13:28;101596.09;;;33.33;90.60
77776;BME280;66965;43.328;6.668;2023-08-08T10:15:54;101592.66;;;33.23;92.73
77776;BME280;66965;43.328;6.668;2023-08-08T10:18:23;101592.31;;;33.52;94.26
77776;BME280;66965;43.328;6.668;2023-08-08T10:20:50;101593.66;;;33.82;93.61
77776;BME280;66965;43.328;6.668;2023-08-08T10:23:20;101596.47;;;34.06;92.34
77776;BME280;66965;43.328;6.668;2023-08-08T10:25:47;101590.44;;;33.86;93.96
77776;BME280;66965;43.328;6.668;2023-08-08T10:28:15;101596.50;;;34.14;92.68
77776;BME280;66965;43.328;6.668;2023-08-08T10:30:46;101590.88;;;34.16;91.32
77776;BME280;66965;43.328;6.668;2023-08-08T10:33:22;101596.75;;;33.95;90.60
77776;BME280;66965;43.328;6.668;2023-08-08T10:38:20;101599.34;;;34.79;86.05
77776;BME280;66965;43.328;6.668;2023-08-08T10:40:47;101602.75;;;34.81;86.54
77776;BME280;66965;43.328;6.668;2023-08-08T10:43:12;101600.53;;;34.76;87.69
77776;BME280;66965;43.328;6.668;2023-08-08T10:45:41;101605.31;;;34.82;88.71
77776;BME280;66965;43.328;6.668;2023-08-08T10:48:10;101612.81;;;34.72;89.76
77776;BME280;66965;43.328;6.668;2023-08-08T10:50:40;101607.84;;;34.76;88.64
77776;BME280;66965;43.328;6.668;2023-08-08T10:53:08;101606.81;;;35.01;86.57
77776;BME280;66965;43.328;6.668;2023-08-08T10:55:35;101608.38;;;35.11;86.56
77776;BME280;66965;43.328;6.668;2023-08-08T10:58:13;101609.41;;;34.78;88.41
77776;BME280;66965;43.328;6.668;2023-08-08T11:00:44;101599.97;;;34.48;86.55
77776;BME280;66965;43.328;6.668;2023-08-08T11:03:10;101608.03;;;34.74;85.92
77776;BME280;66965;43.328;6.668;2023-08-08T11:05:37;101607.16;;;34.74;86.67
77776;BME280;66965;43.328;6.668;2023-08-08T11:08:04;101608.03;;;34.90;84.18
77776;BME280;66965;43.328;6.668;2023-08-08T11:10:40;101607.16;;;35.14;84.21
77776;BME280;66965;43.328;6.668;2023-08-08T11:13:07;101599.00;;;35.06;86.25
77776;BME280;66965;43.328;6.668;2023-08-08T11:15:33;101600.34;;;34.45;88.95
77776;BME280;66965;43.328;6.668;2023-08-08T11:18:00;101606.47;;;35.04;86.87
77776;BME280;66965;43.328;6.668;2023-08-08T11:20:30;101602.44;;;35.08;86.70
77776;BME280;66965;43.328;6.668;2023-08-08T11:22:57;101605.59;;;34.47;88.84
77776;BME280;66965;43.328;6.668;2023-08-08T11:25:25;101603.25;;;35.08;85.24
77776;BME280;66965;43.328;6.668;2023-08-08T11:27:55;101607.84;;;35.00;86.02
77776;BME280;66965;43.328;6.668;2023-08-08T11:30:21;101604.28;;;34.59;88.42
77776;BME280;66965;43.328;6.668;2023-08-08T11:32:48;101605.22;;;34.26;90.31
77776;BME280;66965;43.328;6.668;2023-08-08T11:35:18;101612.97;;;34.79;88.04
77776;BME280;66965;43.328;6.668;2023-08-08T11:37:46;101611.19;;;34.37;87.87
77776;BME280;66965;43.328;6.668;2023-08-08T11:40:13;101608.19;;;34.57;86.41
77776;BME280;66965;43.328;6.668;2023-08-08T11:42:39;101609.03;;;34.57;87.36
77776;BME280;66965;43.328;6.668;2023-08-08T11:45:07;101606.16;;;34.59;88.63
77776;BME280;66965;43.328;6.668;2023-08-08T11:47:34;101598.25;;;34.23;90.89
77776;BME280;66965;43.328;6.668;2023-08-08T11:50:04;101608.34;;;33.97;93.28
77776;BME280;66965;43.328;6.668;2023-08-08T11:52:30;101609.47;;;34.28;90.57
77776;BME280;66965;43.328;6.668;2023-08-08T11:54:58;101608.69;;;34.60;88.66
77776;BME280;66965;43.328;6.668;2023-08-08T11:57:26;101610.69;;;34.34;90.38
77776;BME280;66965;43.328;6.668;2023-08-08T11:59:53;101604.75;;;35.03;87.10
77776;BME280;66965;43.328;6.668;2023-08-08T12:02:18;101607.16;;;34.90;87.59
77776;BME280;66965;43.328;6.668;2023-08-08T12:04:47;101602.75;;;34.89;86.06
77776;BME280;66965;43.328;6.668;2023-08-08T12:07:12;101601.50;;;34.43;89.17
77776;BME280;66965;43.328;6.668;2023-08-08T12:09:39;101605.25;;;34.34;88.90
77776;BME280;66965;43.328;6.668;2023-08-08T12:12:05;101595.53;;;33.81;90.65
77776;BME280;66965;43.328;6.668;2023-08-08T12:14:36;101591.75;;;34.16;91.46
77776;BME280;66965;43.328;6.668;2023-08-08T12:17:02;101585.91;;;34.61;88.48
77776;BME280;66965;43.328;6.668;2023-08-08T12:19:28;101586.88;;;35.00;88.66
77776;BME280;66965;43.328;6.668;2023-08-08T12:21:54;101580.41;;;34.93;86.83
77776;BME280;66965;43.328;6.668;2023-08-08T12:24:19;101577.19;;;35.06;86.48
77776;BME280;66965;43.328;6.668;2023-08-08T12:26:45;101573.47;;;34.67;89.15
77776;BME280;66965;43.328;6.668;2023-08-08T12:29:11;101571.06;;;35.12;85.95
77776;BME280;66965;43.328;6.668;2023-08-08T12:31:37;101577.19;;;35.06;87.69
77776;BME280;66965;43.328;6.668;2023-08-08T12:34:03;101577.66;;;35.26;85.64
77776;BME280;66965;43.328;6.668;2023-08-08T12:36:28;101574.13;;;34.69;86.88
77776;BME280;66965;43.328;6.668;2023-08-08T12:38:54;101584.66;;;35.28;84.71
77776;BME280;66965;43.328;6.668;2023-08-08T12:41:19;101584.75;;;35.98;82.57
77776;BME280;66965;43.328;6.668;2023-08-08T12:43:45;101587.25;;;35.77;81.09
77776;BME280;66965;43.328;6.668;2023-08-08T12:46:10;101587.03;;;35.23;84.25